Historique des mesures à Cassis (13260), France
Quotidien Résumé Avril 3, 2017 Unités:  Métrique    US   Métrique/US
« Précédent (Jour)
Suivant (Jour) »
Quotidien Hebdomadaire Mensuel Annuel Période au choix
  Maximum: Minimum: Moyenne:
Température: TemperatureC °C 11.3 °C 15 °C
Point de rosée: DewpointC °C 8.2 °C 9.4 °C
Humidité: Humidity % 48 % 67 %
Vitesse du vent: 0 km/h 0 km/h 7.2 km/h
Rafales: 0 km/h - -
Vent:- - WSW
Pression: PressurehPa hPa 1013.8 hPa -
Précipitations: 0.0 mm    
Historical Graphs
 
 
Mesures pour : Avril 3, 2017
Heure Temperature Point de rosée Pression Vent Vitesse du vent Rafales Humidité Pluie (par heure) Conditions
TemperatureC °C DewpointC °C PressurehPa hPa Calm     Humidity % HourlyPrecipMM mm SoftwareType W/m2
00:11 12.4 °C 10.3 °C 1014.4 hPa Calm   2.9 km/h 87 % 0.0 mm open2300-1.11 W/m2
01:11 12.4 °C 10.3 °C 1014.4 hPa Calm     87 % 0.0 mm open2300-1.11 W/m2
02:11 12.1 °C 9.6 °C 1014.8 hPa NW 2.9 km/h 12.7 km/h 85 % 0.0 mm open2300-1.11 W/m2
03:11 11.6 °C 9.2 °C 1014.4 hPa NNW 4.2 km/h 7.6 km/h 85 % 0.0 mm open2300-1.11 W/m2
04:11 11.6 °C 9.2 °C 1014.1 hPa NNW 13.2 km/h 13.2 km/h 85 % 0.0 mm open2300-1.11 W/m2
05:11 11.3 °C 8.5 °C 1013.8 hPa NNW 8 km/h 9.3 km/h 83 % 0.0 mm open2300-1.11 W/m2
06:11 11.7 °C 8.6 °C 1013.8 hPa Calm     81 % 0.0 mm open2300-1.11 W/m2
07:11 12.1 °C 8.6 °C 1014.1 hPa West 5.1 km/h 5.1 km/h 79 % 0.0 mm open2300-1.11 W/m2
08:11 11.9 °C 8.2 °C 1014.4 hPa Calm   8 km/h 78 % 0.0 mm open2300-1.11 W/m2
09:11 13.8 °C 8.6 °C 1015.1 hPa North 4.2 km/h 10.9 km/h 71 % 0.0 mm open2300-1.11 W/m2
10:11 14.9 °C 9.3 °C 1015.5 hPa East 7.6 km/h 7.6 km/h 69 % 0.0 mm open2300-1.11 W/m2
11:11 16.6 °C 10.7 °C 1016.1 hPa SE 2.9 km/h 4.2 km/h 68 % 0.0 mm open2300-1.11 W/m2
12:11 18.5 °C 12.0 °C 1016.5 hPa SSE 12.7 km/h 12.7 km/h 66 % 0.0 mm open2300-1.11 W/m2
13:11 19.4 °C 12.2 °C 1016.1 hPa Calm   10.9 km/h 63 % 0.0 mm open2300-1.11 W/m2
14:11 19.9 °C 12.1 °C 1016.1 hPa ESE 9.3 km/h 9.3 km/h 61 % 0.0 mm open2300-1.11 W/m2
15:11 20.2 °C 10.8 °C 1015.8 hPa SSW 7.6 km/h 9.3 km/h 55 % 0.0 mm open2300-1.11 W/m2
16:11 20.5 °C 9.7 °C 1015.8 hPa SSE 12.2 km/h 12.2 km/h 50 % 0.0 mm open2300-1.11 W/m2
17:11 20.3 °C 8.9 °C 1015.8 hPa West 5.6 km/h 10.9 km/h 48 % 0.0 mm open2300-1.11 W/m2
18:11 19.9 °C 8.6 °C 1015.8 hPa NW 7.6 km/h 11.6 km/h 48 % 0.0 mm open2300-1.11 W/m2
19:11 18.3 °C 9.9 °C 1015.5 hPa NW 29.5 km/h 33.6 km/h 58 % 0.0 mm open2300-1.11 W/m2
20:11 16.6 °C 9.8 °C 1015.5 hPa NNW 24.8 km/h 25.4 km/h 64 % 0.0 mm open2300-1.11 W/m2
21:11 15.9 °C 9.6 °C 1015.5 hPa Calm     66 % 0.0 mm open2300-1.11 W/m2
22:11 16.0 °C 9.9 °C 1015.5 hPa Calm     67 % 0.0 mm open2300-1.11 W/m2
23:11 16.9 °C 9.3 °C 1014.8 hPa NNW 23.8 km/h 23.8 km/h 61 % 0.0 mm open2300-1.11 W/m2
Observations météo à CASSIS
WU-History script by Weather Underground - 1 mb